Fourmile Hill, Arkansas
Current Conditions -  °F | °C
As of 6:56 AM on Wednesday 22 Oct 2014 (Local Time) from KSRC Reporting Station
Clear Clear  
Wind Chill: 50°   Ceiling: Unl
Heat Index: 50°   Visibility: 10mi
Dew Point: 46°   Wind: 5mph
Humidity: 86%   Direction: 330°NNW
Pressure: 30.23"   Gusts: NA
Location:  35.2662°N, 91.8491°W
Report Text: KSRC 221156Z AUTO 33004KT 10SM CLR 10/08 A3023 RMK AO2 SLP243 T01000078 10128 20083 53022 TSNO
Loading
Personal Weather Stations






























Interactive Weather Map
Tropical Storm Tracking
New forecast layout! Learn more

10-Day Weather Forecast

Advertisements
Track Severe Weather on mobile